Time;durP1;ratioP1;P1;durP2;ratioP2;P2;SDS_P1;SDS_P2;PMS_P1;PMS_P2;Temp;Humidity;BMP_temperature;BMP_pressure;BME280_temperature;BME280_humidity;BME280_pressure;Samples;Min_cycle;Max_cycle;Signal;HPM_P1;HPM_P2
2023/04/29 00:00:05;;;;;;;28.90;17.80;;;;;;;6.76;61.07;97007.39;108724;1253;108497;-74
2023/04/29 00:02:52;;;;;;;28.80;17.30;;;;;;;6.74;61.28;97012.30;108742;1253;95620;-74
2023/04/29 00:05:18;;;;;;;29.60;17.00;;;;;;;6.73;61.45;97014.52;108426;1252;95670;-73
2023/04/29 00:07:45;;;;;;;29.50;17.20;;;;;;;6.73;61.58;97011.11;108772;1253;95581;-74
2023/04/29 00:10:13;;;;;;;30.00;16.60;;;;;;;6.72;61.71;97011.67;108729;1252;95705;-74
2023/04/29 00:12:41;;;;;;;24.00;14.30;;;;;;;6.70;61.88;97010.29;108766;1252;95699;-73
2023/04/29 00:15:08;;;;;;;22.70;14.50;;;;;;;6.69;61.84;97012.88;108736;1252;95652;-74
2023/04/29 00:17:35;;;;;;;32.00;14.80;;;;;;;6.69;62.01;97010.58;108825;1252;95743;-73
2023/04/29 00:20:03;;;;;;;22.00;14.60;;;;;;;6.72;62.01;97009.69;108753;1253;95877;-73
2023/04/29 00:22:29;;;;;;;23.00;13.80;;;;;;;6.73;62.05;97009.70;108734;1253;96013;-74
2023/04/29 00:24:56;;;;;;;21.20;13.00;;;;;;;6.75;62.06;97009.34;108785;1252;95611;-73
2023/04/29 00:27:23;;;;;;;21.80;15.00;;;;;;;6.77;61.94;97011.72;108834;1253;95675;-74
2023/04/29 00:29:49;;;;;;;20.20;14.20;;;;;;;6.78;62.09;97015.86;108760;1252;103080;-73
2023/04/29 00:32:16;;;;;;;24.00;15.40;;;;;;;6.79;62.25;97013.80;108801;1253;95785;-74
2023/04/29 00:34:43;;;;;;;26.40;16.00;;;;;;;6.79;62.23;97009.67;108724;1252;95836;-74
2023/04/29 00:37:09;;;;;;;24.70;16.10;;;;;;;6.79;62.30;97007.77;108406;1253;95745;-74
2023/04/29 00:39:36;;;;;;;24.00;15.50;;;;;;;6.81;62.32;97006.39;108868;1252;95631;-73
2023/04/29 00:42:03;;;;;;;23.20;15.30;;;;;;;6.81;62.39;97004.34;108760;1252;101280;-73
2023/04/29 00:44:30;;;;;;;23.90;15.20;;;;;;;6.80;62.43;97004.65;108368;1253;96581;-73
2023/04/29 00:46:58;;;;;;;29.40;16.70;;;;;;;6.81;62.33;97001.52;108711;1252;96571;-73
2023/04/29 00:49:26;;;;;;;23.40;15.70;;;;;;;6.82;62.54;97002.06;108800;1253;95983;-74
2023/04/29 00:51:55;;;;;;;27.10;17.40;;;;;;;6.81;62.79;96999.78;108740;1252;103283;-74
2023/04/29 00:54:22;;;;;;;30.50;19.40;;;;;;;6.80;62.78;97004.40;108750;1253;101307;-74
2023/04/29 00:56:50;;;;;;;30.00;18.60;;;;;;;6.81;62.86;97000.41;108524;1252;96061;-73
2023/04/29 00:59:17;;;;;;;29.20;18.20;;;;;;;6.83;63.00;96996.97;108728;1252;95576;-74
2023/04/29 01:01:44;;;;;;;32.00;19.10;;;;;;;6.84;62.98;96994.12;108356;1253;95788;-74
2023/04/29 01:04:11;;;;;;;30.00;19.10;;;;;;;6.85;63.12;96992.56;108632;1253;95826;-74
2023/04/29 01:06:52;;;;;;;28.60;18.60;;;;;;;6.86;63.18;96995.50;108735;1253;95627;-73
2023/04/29 01:09:40;;;;;;;27.20;18.80;;;;;;;6.86;63.37;96992.12;108715;1253;99771;-73
2023/04/29 01:12:32;;;;;;;30.10;18.10;;;;;;;6.85;63.58;96994.05;108701;1253;96032;-74
2023/04/29 01:15:32;;;;;;;28.00;18.60;;;;;;;6.79;63.70;96996.23;108723;1252;96032;-73
2023/04/29 01:18:04;;;;;;;31.60;19.90;;;;;;;6.73;63.66;96996.16;108723;1253;103571;-74
2023/04/29 01:20:32;;;;;;;32.60;19.80;;;;;;;6.74;63.73;96996.58;108746;1253;101317;-74
2023/04/29 01:22:58;;;;;;;32.40;19.80;;;;;;;6.76;63.86;96994.64;108705;1253;99775;-74
2023/04/29 01:25:26;;;;;;;26.90;18.40;;;;;;;6.79;63.94;96991.27;108757;1253;95664;-74
2023/04/29 01:28:14;;;;;;;33.80;19.20;;;;;;;6.81;64.10;96994.21;108801;1252;95605;-73
2023/04/29 01:30:41;;;;;;;27.40;18.00;;;;;;;6.83;64.23;96997.13;108760;1253;103513;-74
2023/04/29 01:33:32;;;;;;;30.70;18.00;;;;;;;6.87;64.11;96997.73;108769;1253;96432;-74
2023/04/29 01:36:40;;;;;;;24.30;16.80;;;;;;;6.92;64.30;96997.11;108557;1252;99931;-73
2023/04/29 01:39:14;;;;;;;22.20;15.20;;;;;;;6.91;64.44;96995.34;108098;1261;95687;-74
2023/04/29 01:41:50;;;;;;;26.70;16.20;;;;;;;6.89;64.46;96994.63;108105;1261;96113;-74
2023/04/29 01:44:24;;;;;;;29.00;18.40;;;;;;;6.91;64.52;96992.36;108080;1261;103521;-73
2023/04/29 01:46:53;;;;;;;25.70;17.40;;;;;;;6.94;64.56;96989.20;108057;1261;101388;-74
2023/04/29 01:49:21;;;;;;;26.70;16.80;;;;;;;6.95;64.70;96992.64;108076;1261;100012;-74
2023/04/29 01:51:47;;;;;;;30.90;21.20;;;;;;;6.95;64.79;96990.83;108077;1261;95975;-73
2023/04/29 01:54:14;;;;;;;33.80;21.70;;;;;;;6.94;64.72;96985.70;108064;1261;96076;-74
2023/04/29 01:56:41;;;;;;;34.10;22.70;;;;;;;6.96;64.88;96987.36;108096;1261;95912;-73
2023/04/29 01:59:07;;;;;;;36.30;23.60;;;;;;;6.96;64.91;96985.89;108082;1261;95693;-74
2023/04/29 02:01:34;;;;;;;32.40;21.30;;;;;;;6.96;65.06;96985.63;108107;1261;95644;-73
2023/04/29 02:04:01;;;;;;;26.20;17.10;;;;;;;6.98;65.09;96987.22;108098;1261;96135;-74
2023/04/29 02:06:30;;;;;;;24.10;16.00;;;;;;;7.00;65.15;96982.23;107912;1261;95774;-73
2023/04/29 02:08:58;;;;;;;22.70;14.80;;;;;;;7.02;65.30;96982.88;108088;1261;101288;-73
2023/04/29 02:11:24;;;;;;;19.90;13.70;;;;;;;7.04;65.35;96983.48;108042;1261;96116;-74
2023/04/29 02:13:51;;;;;;;24.10;13.50;;;;;;;7.04;65.41;96979.02;108094;1261;95757;-74
2023/04/29 02:16:18;;;;;;;22.50;13.40;;;;;;;7.04;65.55;96975.02;108584;1253;95698;-73
2023/04/29 02:18:44;;;;;;;21.50;13.40;;;;;;;7.03;65.47;96974.34;108514;1254;95906;-73
2023/04/29 02:21:11;;;;;;;24.30;13.90;;;;;;;7.05;65.59;96972.38;108805;1252;95713;-74
2023/04/29 02:23:38;;;;;;;24.10;12.80;;;;;;;7.06;65.66;96970.94;108732;1252;95653;-74
2023/04/29 02:26:05;;;;;;;18.20;12.20;;;;;;;7.07;65.72;96970.73;108411;1252;95797;-74
2023/04/29 02:28:33;;;;;;;18.50;12.00;;;;;;;7.08;65.75;96969.05;108726;1253;95557;-74
2023/04/29 02:31:00;;;;;;;18.10;11.90;;;;;;;7.08;65.86;96971.53;108720;1252;95653;-73
2023/04/29 02:33:27;;;;;;;17.20;11.80;;;;;;;7.10;65.91;96972.95;108501;1253;95854;-74
2023/04/29 02:35:53;;;;;;;17.70;11.40;;;;;;;7.13;65.91;96975.30;108714;1253;95852;-74
2023/04/29 02:38:20;;;;;;;20.10;13.20;;;;;;;7.16;66.16;96971.02;108734;1252;95950;-74
2023/04/29 02:40:47;;;;;;;23.80;14.30;;;;;;;7.15;66.31;96969.73;108848;1253;95916;-73
2023/04/29 02:43:13;;;;;;;21.70;14.40;;;;;;;7.14;66.46;96970.95;108715;1252;100285;-74
2023/04/29 02:45:40;;;;;;;21.80;13.70;;;;;;;7.12;66.70;96970.11;108771;1253;96237;-75
2023/04/29 02:48:07;;;;;;;22.20;15.10;;;;;;;7.09;66.86;96962.36;108772;1253;96297;-73
2023/04/29 02:50:33;;;;;;;23.70;14.70;;;;;;;7.06;67.04;96962.14;108783;1253;96079;-74
2023/04/29 02:53:00;;;;;;;21.40;13.90;;;;;;;7.05;67.00;96960.52;108777;1253;95827;-73
2023/04/29 02:55:27;;;;;;;25.30;15.00;;;;;;;7.06;67.10;96958.73;108728;1253;95825;-73
2023/04/29 02:57:54;;;;;;;23.60;14.70;;;;;;;7.10;67.12;96961.39;108761;1252;95663;-74
2023/04/29 03:00:20;;;;;;;22.10;14.40;;;;;;;7.15;66.99;96958.13;108350;1254;95813;-74
2023/04/29 03:02:47;;;;;;;20.20;13.30;;;;;;;7.23;67.01;96961.17;108740;1252;95692;-75
2023/04/29 03:05:14;;;;;;;22.10;13.20;;;;;;;7.26;67.21;96960.19;108792;1253;95858;-74
2023/04/29 03:07:41;;;;;;;23.30;13.10;;;;;;;7.23;67.28;96954.66;108739;1252;96018;-74
2023/04/29 03:10:08;;;;;;;16.10;10.60;;;;;;;7.23;67.20;96953.97;108751;1253;95650;-74
2023/04/29 03:12:35;;;;;;;18.40;12.30;;;;;;;7.24;67.16;96956.57;108746;1253;95752;-74
2023/04/29 03:15:01;;;;;;;17.70;12.40;;;;;;;7.27;67.41;96956.55;108421;1252;95917;-74
2023/04/29 03:17:28;;;;;;;21.00;13.80;;;;;;;7.27;67.56;96958.33;108731;1252;95685;-75
2023/04/29 03:19:55;;;;;;;20.40;12.60;;;;;;;7.25;67.66;96958.58;108817;1252;96531;-74
2023/04/29 03:22:21;;;;;;;20.30;13.10;;;;;;;7.25;67.76;96955.89;108391;1252;101411;-73
2023/04/29 03:24:48;;;;;;;20.60;13.00;;;;;;;7.25;67.99;96956.02;108410;1252;95953;-75
2023/04/29 03:27:15;;;;;;;16.40;12.30;;;;;;;7.26;68.07;96959.77;108728;1253;95614;-74
2023/04/29 03:29:42;;;;;;;18.50;11.90;;;;;;;7.25;68.17;96961.96;108427;1253;95852;-75
2023/04/29 03:32:08;;;;;;;21.70;13.30;;;;;;;7.26;68.17;96961.89;108841;1252;95794;-76
2023/04/29 03:34:35;;;;;;;18.00;12.90;;;;;;;7.27;68.31;96966.77;108767;1252;99653;-74
2023/04/29 03:37:02;;;;;;;18.70;11.40;;;;;;;7.27;68.40;96966.92;108786;1252;95609;-74
2023/04/29 03:39:31;;;;;;;17.30;11.40;;;;;;;7.28;68.35;96969.04;108759;1252;95699;-74
2023/04/29 03:41:58;;;;;;;18.00;10.60;;;;;;;7.31;68.56;96971.54;108780;1253;103164;-74
2023/04/29 03:44:25;;;;;;;17.10;10.60;;;;;;;7.33;68.66;96974.15;108808;1254;95991;-73
2023/04/29 03:46:52;;;;;;;14.60;11.00;;;;;;;7.35;68.66;96975.73;108788;1252;95577;-73
2023/04/29 03:49:19;;;;;;;14.60;11.00;;;;;;;7.37;68.72;96975.73;108805;1253;96574;-76
2023/04/29 03:51:46;;;;;;;17.10;10.80;;;;;;;7.41;68.67;96975.21;108419;1254;95747;-76
2023/04/29 03:54:12;;;;;;;18.50;11.00;;;;;;;7.43;68.73;96976.45;108766;1254;96558;-75
2023/04/29 03:56:39;;;;;;;18.40;10.80;;;;;;;7.44;68.84;96975.02;108471;1254;96131;-74
2023/04/29 03:59:06;;;;;;;15.50;10.60;;;;;;;7.46;68.91;96975.27;108728;1253;95613;-74
2023/04/29 04:01:33;;;;;;;15.40;10.80;;;;;;;7.47;69.24;96978.01;108760;1252;95662;-75
2023/04/29 04:04:00;;;;;;;17.90;11.20;;;;;;;7.46;69.23;96980.80;108788;1254;95631;-76
2023/04/29 04:06:26;;;;;;;15.10;11.10;;;;;;;7.48;69.38;96982.23;108768;1254;95724;-75
2023/04/29 04:08:53;;;;;;;16.40;10.90;;;;;;;7.49;69.60;96982.91;108766;1252;96774;-75
2023/04/29 04:11:20;;;;;;;17.00;11.60;;;;;;;7.49;69.77;96983.98;108801;1252;95918;-75
2023/04/29 04:13:47;;;;;;;16.90;11.70;;;;;;;7.50;69.87;96984.39;108773;1253;95671;-74
2023/04/29 04:16:13;;;;;;;18.20;12.80;;;;;;;7.50;70.04;96980.59;108756;1254;96964;-75
2023/04/29 04:18:40;;;;;;;17.80;12.20;;;;;;;7.52;70.23;96980.89;108776;1253;95879;-74
2023/04/29 04:21:12;;;;;;;15.80;11.20;;;;;;;7.54;70.36;96981.32;108443;1252;95871;-74
2023/04/29 04:23:39;;;;;;;18.30;11.90;;;;;;;7.57;70.48;96979.55;108799;1253;103308;-74
2023/04/29 04:26:07;;;;;;;17.00;12.70;;;;;;;7.59;70.64;96979.08;108791;1254;101220;-75
2023/04/29 04:28:33;;;;;;;20.60;13.30;;;;;;;7.62;70.77;96977.11;108751;1252;96470;-77
2023/04/29 04:31:00;;;;;;;17.70;13.10;;;;;;;7.64;70.88;96975.30;108771;1254;95977;-75
2023/04/29 04:33:27;;;;;;;18.20;13.10;;;;;;;7.65;70.91;96976.67;108786;1256;96425;-75
2023/04/29 04:35:53;;;;;;;18.90;12.70;;;;;;;7.67;70.98;96975.31;108734;1254;95723;-74
2023/04/29 04:38:22;;;;;;;18.30;12.20;;;;;;;7.70;71.15;96972.55;108873;1252;95667;-74
2023/04/29 04:40:48;;;;;;;18.40;11.60;;;;;;;7.72;71.22;96972.45;108772;1253;95805;-77
2023/04/29 04:43:16;;;;;;;16.20;11.30;;;;;;;7.73;71.36;96971.30;108792;1252;96077;-75
2023/04/29 04:45:43;;;;;;;19.20;11.50;;;;;;;7.74;71.24;96972.42;108786;1253;95951;-74
2023/04/29 04:48:09;;;;;;;17.90;12.20;;;;;;;7.76;71.25;96973.63;108785;1252;95752;-75
2023/04/29 04:50:36;;;;;;;22.50;12.50;;;;;;;7.77;71.45;96970.70;108784;1252;95992;-74
2023/04/29 04:53:03;;;;;;;17.60;12.70;;;;;;;7.78;71.59;96971.00;108866;1254;95664;-77
2023/04/29 04:55:30;;;;;;;17.10;12.70;;;;;;;7.80;71.64;96971.36;108790;1253;102164;-75
2023/04/29 04:57:57;;;;;;;21.40;13.40;;;;;;;7.82;71.79;96971.09;108802;1253;100311;-73
2023/04/29 05:00:24;;;;;;;16.50;12.80;;;;;;;7.84;71.83;96969.64;108818;1254;95665;-77
2023/04/29 05:02:51;;;;;;;16.30;12.00;;;;;;;7.86;71.95;96967.69;108754;1252;95626;-78
2023/04/29 05:05:18;;;;;;;20.20;12.20;;;;;;;7.85;72.16;96968.52;108840;1252;95584;-74
2023/04/29 05:07:44;;;;;;;15.60;12.50;;;;;;;7.83;72.23;96967.55;108813;1253;95645;-75
2023/04/29 05:10:11;;;;;;;18.70;12.10;;;;;;;7.81;72.32;96963.90;108883;1252;95688;-75
2023/04/29 05:12:38;;;;;;;20.80;13.40;;;;;;;7.82;72.47;96972.30;108751;1253;95785;-74
2023/04/29 05:15:05;;;;;;;17.70;13.50;;;;;;;7.81;72.58;96969.06;108830;1252;96461;-74
2023/04/29 05:17:33;;;;;;;21.90;14.40;;;;;;;7.80;72.79;96970.42;108742;1252;95810;-74
2023/04/29 05:20:00;;;;;;;20.30;11.40;;;;;;;7.80;72.79;96971.82;108790;1253;95638;-75
2023/04/29 05:22:26;;;;;;;20.40;12.40;;;;;;;7.81;72.65;96972.36;108722;1254;95971;-74
2023/04/29 05:24:54;;;;;;;19.80;12.10;;;;;;;7.82;72.75;96969.64;108850;1252;95660;-76
2023/04/29 05:27:20;;;;;;;19.00;12.90;;;;;;;7.80;72.91;96973.40;108487;1254;95874;-73
2023/04/29 05:29:47;;;;;;;18.10;12.30;;;;;;;7.81;73.09;96977.13;108876;1253;95608;-76
2023/04/29 05:32:14;;;;;;;17.10;12.20;;;;;;;7.81;73.19;96975.34;108748;1252;100014;-77
2023/04/29 05:34:41;;;;;;;15.20;11.90;;;;;;;7.80;73.28;96967.48;108761;1253;95660;-77
2023/04/29 05:37:07;;;;;;;17.90;12.80;;;;;;;7.82;73.27;96967.13;108776;1256;95829;-74
2023/04/29 05:39:34;;;;;;;16.30;11.10;;;;;;;7.84;73.31;96970.23;108757;1253;96978;-74
2023/04/29 05:42:01;;;;;;;12.60;10.90;;;;;;;7.88;73.27;96973.15;108787;1256;95956;-76
2023/04/29 05:44:27;;;;;;;16.00;11.10;;;;;;;7.91;73.40;96974.52;108742;1253;95624;-75
2023/04/29 05:46:54;;;;;;;16.70;11.50;;;;;;;7.92;73.58;96973.62;108803;1253;95979;-74
2023/04/29 05:49:21;;;;;;;17.00;11.60;;;;;;;7.93;73.65;96976.40;108785;1253;95673;-74
2023/04/29 05:51:47;;;;;;;17.30;11.90;;;;;;;7.97;73.55;96979.36;108529;1253;95823;-74
2023/04/29 05:54:14;;;;;;;18.20;13.20;;;;;;;8.01;73.46;96978.20;108811;1252;95584;-74
2023/04/29 05:56:41;;;;;;;20.80;14.90;;;;;;;8.05;73.61;96979.35;108794;1253;96121;-74
2023/04/29 05:59:08;;;;;;;22.60;16.10;;;;;;;8.09;73.76;96976.02;108795;1253;95878;-77
2023/04/29 06:01:35;;;;;;;22.60;16.10;;;;;;;8.13;73.85;96974.02;108784;1253;96056;-73
2023/04/29 06:04:01;;;;;;;23.80;15.30;;;;;;;8.18;73.74;96974.06;108330;1254;96093;-75
2023/04/29 06:06:28;;;;;;;23.00;18.00;;;;;;;8.22;73.70;96972.60;108767;1254;95826;-75
2023/04/29 06:08:55;;;;;;;30.60;19.40;;;;;;;8.26;73.74;96972.80;108856;1253;95952;-74
2023/04/29 06:11:22;;;;;;;21.50;17.30;;;;;;;8.30;73.73;96974.73;108780;1253;101365;-74
2023/04/29 06:13:49;;;;;;;28.60;19.20;;;;;;;8.35;73.71;96974.08;108417;1260;96009;-74
2023/04/29 06:16:15;;;;;;;20.40;14.60;;;;;;;8.40;73.80;96971.64;108476;1252;95688;-74
2023/04/29 06:18:42;;;;;;;19.20;12.90;;;;;;;8.45;73.71;96971.66;108784;1252;95600;-74
2023/04/29 06:21:09;;;;;;;18.50;12.70;;;;;;;8.47;73.42;96971.70;108904;1252;96038;-74
2023/04/29 06:23:35;;;;;;;18.10;12.70;;;;;;;8.49;73.31;96971.24;108786;1256;99875;-75
2023/04/29 06:26:02;;;;;;;18.30;13.10;;;;;;;8.52;73.23;96972.48;108804;1252;95686;-74
2023/04/29 06:28:29;;;;;;;14.30;11.70;;;;;;;8.53;73.24;96971.45;108417;1253;95734;-74
2023/04/29 06:30:55;;;;;;;19.70;12.80;;;;;;;8.55;73.04;96973.79;108791;1253;95625;-77
2023/04/29 06:33:22;;;;;;;15.90;12.60;;;;;;;8.57;73.26;96973.59;108862;1252;95864;-74
2023/04/29 06:35:49;;;;;;;20.50;13.70;;;;;;;8.63;73.22;96972.59;108348;1253;95792;-74
2023/04/29 06:38:16;;;;;;;21.10;14.60;;;;;;;8.66;73.07;96976.08;108353;1254;95762;-74
2023/04/29 06:40:43;;;;;;;34.10;23.70;;;;;;;8.69;73.16;96978.96;108626;1252;95640;-74
2023/04/29 06:43:10;;;;;;;30.80;22.70;;;;;;;8.71;73.25;96975.98;108780;1254;96079;-75
2023/04/29 06:45:36;;;;;;;33.00;22.20;;;;;;;8.76;73.05;96980.11;108832;1253;95666;-75
2023/04/29 06:48:03;;;;;;;24.10;17.30;;;;;;;8.80;73.13;96976.06;108866;1253;95977;-74
2023/04/29 06:50:30;;;;;;;21.20;14.70;;;;;;;8.83;73.28;96977.77;108859;1253;103204;-75
2023/04/29 06:52:57;;;;;;;18.50;12.40;;;;;;;8.85;73.21;96975.11;108428;1252;96993;-76
2023/04/29 06:55:23;;;;;;;16.70;13.70;;;;;;;8.87;73.09;96974.25;108790;1252;95951;-74
2023/04/29 06:57:50;;;;;;;21.30;15.20;;;;;;;8.90;73.15;96977.60;108762;1253;95932;-74
2023/04/29 07:00:19;;;;;;;20.40;15.20;;;;;;;8.92;73.24;96972.45;108742;1253;95639;-75
2023/04/29 07:02:46;;;;;;;19.70;15.80;;;;;;;8.96;73.25;96974.63;108827;1252;101374;-75
2023/04/29 07:05:13;;;;;;;22.10;15.80;;;;;;;8.99;73.33;96970.83;108788;1254;96061;-75
2023/04/29 07:07:39;;;;;;;27.50;17.70;;;;;;;9.02;73.43;96969.98;108739;1254;96663;-77
2023/04/29 07:10:06;;;;;;;25.80;17.60;;;;;;;9.08;73.51;96970.38;108777;1254;95676;-74
2023/04/29 07:12:33;;;;;;;24.50;18.00;;;;;;;9.13;73.38;96969.66;108902;1253;95928;-75
2023/04/29 07:15:00;;;;;;;24.90;17.10;;;;;;;9.16;73.42;96975.16;108461;1254;99924;-74
2023/04/29 07:17:29;;;;;;;23.30;17.70;;;;;;;9.20;73.20;96975.83;108860;1253;95594;-74
2023/04/29 07:19:56;;;;;;;21.90;15.50;;;;;;;9.22;73.20;96976.61;108784;1254;96048;-76
2023/04/29 07:22:23;;;;;;;22.40;14.10;;;;;;;9.24;73.26;96979.92;108784;1254;95663;-74
2023/04/29 07:24:53;;;;;;;20.40;13.60;;;;;;;9.25;73.14;96981.70;108794;1252;95682;-73
2023/04/29 07:27:20;;;;;;;16.10;12.50;;;;;;;9.27;73.13;96978.39;108731;1253;100267;-77
2023/04/29 07:29:46;;;;;;;19.10;11.70;;;;;;;9.28;73.10;96977.02;108780;1253;95730;-74
2023/04/29 07:32:14;;;;;;;18.90;12.50;;;;;;;9.29;73.17;96974.58;108783;1254;96321;-74
2023/04/29 07:34:41;;;;;;;21.40;13.80;;;;;;;9.32;73.01;96973.88;108727;1253;95863;-74
2023/04/29 07:37:08;;;;;;;19.30;13.70;;;;;;;9.37;72.96;96971.14;108812;1253;95642;-74
2023/04/29 07:39:35;;;;;;;17.40;13.50;;;;;;;9.42;73.12;96967.13;108785;1254;96097;-74
2023/04/29 07:42:03;;;;;;;17.40;12.60;;;;;;;9.49;73.09;96970.54;108927;1252;96730;-73
2023/04/29 07:44:30;;;;;;;18.80;13.10;;;;;;;9.54;72.85;96974.35;108779;1254;103959;-74
2023/04/29 07:46:56;;;;;;;18.80;14.80;;;;;;;9.60;72.86;96969.39;108773;1254;95886;-74
2023/04/29 07:49:24;;;;;;;18.60;13.70;;;;;;;9.67;72.94;96970.59;108759;1252;95710;-75
2023/04/29 07:51:51;;;;;;;20.60;14.10;;;;;;;9.74;73.11;96970.65;108402;1254;96688;-77
2023/04/29 07:54:18;;;;;;;18.80;13.20;;;;;;;9.81;72.90;96970.81;108454;1254;95772;-74
2023/04/29 07:56:45;;;;;;;15.80;12.50;;;;;;;9.87;72.91;96966.70;108823;1254;95893;-74
2023/04/29 07:59:12;;;;;;;17.90;12.20;;;;;;;9.96;72.91;96966.48;108732;1253;97024;-74
2023/04/29 08:01:42;;;;;;;18.60;12.00;;;;;;;10.08;72.95;96961.17;108769;1257;96102;-73
2023/04/29 08:04:09;;;;;;;17.70;12.90;;;;;;;10.22;72.97;96963.08;108829;1254;95926;-75
2023/04/29 08:06:36;;;;;;;16.70;11.60;;;;;;;10.41;72.85;96959.23;108826;1254;95616;-74
2023/04/29 08:09:02;;;;;;;16.20;12.50;;;;;;;10.61;72.42;96960.06;108782;1254;95677;-74
2023/04/29 08:11:29;;;;;;;18.60;12.00;;;;;;;10.73;72.44;96956.05;108787;1254;95654;-75
2023/04/29 08:13:58;;;;;;;18.30;12.20;;;;;;;10.88;72.50;96957.98;108915;1252;95649;-74
2023/04/29 08:16:25;;;;;;;11.80;9.90;;;;;;;11.00;72.01;96956.07;108397;1253;102600;-73
2023/04/29 08:18:53;;;;;;;13.10;9.60;;;;;;;11.10;71.20;96959.73;108768;1253;100084;-76
2023/04/29 08:21:20;;;;;;;12.30;9.80;;;;;;;11.22;70.93;96960.72;108785;1256;95638;-74
2023/04/29 08:23:46;;;;;;;16.00;10.10;;;;;;;11.37;70.83;96957.70;108831;1252;96714;-75
2023/04/29 08:26:13;;;;;;;13.80;8.80;;;;;;;11.52;70.60;96953.36;108431;1253;96090;-74
2023/04/29 08:28:40;;;;;;;10.60;8.50;;;;;;;11.65;70.40;96953.23;108831;1254;95630;-74
2023/04/29 08:31:07;;;;;;;12.40;8.80;;;;;;;11.70;69.93;96957.65;108848;1254;96159;-74
2023/04/29 08:33:34;;;;;;;18.70;8.90;;;;;;;11.76;69.76;96960.56;108765;1254;95641;-74
2023/04/29 08:36:02;;;;;;;11.50;8.60;;;;;;;11.84;69.11;96958.52;108780;1253;96039;-74
2023/04/29 08:38:30;;;;;;;13.50;9.50;;;;;;;11.89;69.00;96957.58;108814;1253;103675;-74
2023/04/29 08:40:57;;;;;;;18.30;9.20;;;;;;;11.99;68.91;96958.76;108775;1254;95657;-74
2023/04/29 08:43:24;;;;;;;16.60;10.80;;;;;;;12.07;68.38;96954.59;108800;1254;95607;-74
2023/04/29 08:45:52;;;;;;;16.60;10.60;;;;;;;12.15;68.46;96947.48;108777;1252;95624;-75
2023/04/29 08:48:19;;;;;;;17.70;11.10;;;;;;;12.29;68.17;96947.67;108834;1254;95699;-74
2023/04/29 08:50:46;;;;;;;15.30;9.20;;;;;;;12.54;67.84;96944.95;108790;1252;95943;-74
2023/04/29 08:53:13;;;;;;;13.50;9.30;;;;;;;12.82;67.67;96945.78;108834;1253;95904;-74
2023/04/29 08:55:49;;;;;;;13.80;9.70;;;;;;;12.98;66.90;96948.15;108791;1254;95936;-74
2023/04/29 08:58:16;;;;;;;12.20;8.60;;;;;;;13.10;66.34;96948.13;108776;1254;95646;-74
2023/04/29 09:00:44;;;;;;;14.80;9.10;;;;;;;13.19;66.23;96942.98;108827;1254;95628;-74
2023/04/29 09:03:24;;;;;;;9.00;6.70;;;;;;;13.23;65.56;96944.11;108797;1255;95689;-74
2023/04/29 09:05:58;;;;;;;11.70;7.40;;;;;;;13.27;64.94;96940.77;108822;1254;101492;-75
2023/04/29 09:08:26;;;;;;;9.40;7.20;;;;;;;13.34;64.69;96934.88;108381;1253;99641;-75
2023/04/29 09:10:53;;;;;;;10.10;7.40;;;;;;;13.41;64.29;96934.31;108392;1254;95816;-75
2023/04/29 09:13:26;;;;;;;11.60;7.00;;;;;;;13.45;63.91;96929.52;108824;1253;96013;-74
2023/04/29 09:15:54;;;;;;;13.50;6.80;;;;;;;13.53;63.75;96929.27;108812;1254;103167;-74
2023/04/29 09:18:44;;;;;;;11.50;7.20;;;;;;;13.62;63.65;96928.02;108799;1254;95632;-75
2023/04/29 09:21:16;;;;;;;8.40;6.60;;;;;;;13.68;63.07;96924.51;108769;1254;99324;-73
2023/04/29 09:23:44;;;;;;;12.90;7.20;;;;;;;13.70;62.55;96928.30;108753;1254;95567;-76
2023/04/29 09:26:11;;;;;;;8.80;7.00;;;;;;;13.72;62.51;96924.59;108830;1254;95976;-73
2023/04/29 09:28:39;;;;;;;10.80;6.90;;;;;;;13.77;62.23;96928.02;108614;1254;221484;-73
2023/04/29 09:31:07;;;;;;;9.00;6.00;;;;;;;13.83;61.70;96925.05;108835;1253;95615;-76
2023/04/29 09:33:51;;;;;;;10.20;6.50;;;;;;;13.88;61.50;96923.14;108745;1254;99293;-74
2023/04/29 09:36:38;;;;;;;16.00;6.30;;;;;;;13.99;61.17;96921.93;108391;1254;95719;-74
2023/04/29 09:39:10;;;;;;;11.90;6.00;;;;;;;14.08;61.11;96918.39;108624;1253;96110;-75
2023/04/29 09:41:40;;;;;;;;;;;;;;;14.20;60.85;96913.29;108817;1254;103596;-77
2023/04/29 09:44:09;;;;;;;10.30;6.20;;;;;;;14.36;60.39;96911.81;108861;1254;101412;-74
2023/04/29 09:46:36;;;;;;;10.00;6.30;;;;;;;14.68;60.57;96907.81;108789;1254;99827;-74
2023/04/29 09:49:04;;;;;;;12.00;6.10;;;;;;;15.26;60.42;96910.35;108835;1254;95769;-74
2023/04/29 09:51:31;;;;;;;6.90;5.50;;;;;;;15.81;59.71;96907.03;108722;1256;96394;-75
2023/04/29 09:54:20;;;;;;;8.50;5.90;;;;;;;16.16;59.16;96899.70;108476;1254;103315;-75
2023/04/29 09:56:51;;;;;;;9.80;5.80;;;;;;;16.41;58.07;96900.12;108751;1256;101250;-75
2023/04/29 09:59:19;;;;;;;7.20;5.70;;;;;;;16.51;57.62;96894.48;108402;1254;99757;-77
2023/04/29 10:01:49;;;;;;;7.00;6.00;;;;;;;16.53;57.06;96891.61;108811;1254;95599;-74
2023/04/29 10:04:17;;;;;;;8.40;5.40;;;;;;;16.50;56.39;96893.23;108835;1254;96562;-77
2023/04/29 10:06:45;;;;;;;6.50;3.80;;;;;;;16.47;56.17;96890.37;108821;1253;103421;-74
2023/04/29 10:09:16;;;;;;;5.60;3.70;;;;;;;16.43;55.74;96890.22;108357;1252;101317;-77
2023/04/29 10:11:45;;;;;;;3.50;2.70;;;;;;;16.32;54.96;96889.04;108476;1254;100021;-75
2023/04/29 10:14:14;;;;;;;3.30;3.00;;;;;;;16.14;54.25;96885.19;108733;1255;95809;-77
2023/04/29 10:17:02;;;;;;;3.60;3.00;;;;;;;16.02;54.14;96882.37;108708;1253;95881;-74
2023/04/29 10:19:57;;;;;;;3.10;2.80;;;;;;;15.96;53.79;96885.52;108789;1254;103507;-78
2023/04/29 10:22:35;;;;;;;3.60;3.10;;;;;;;15.95;53.82;96886.27;108799;1254;101269;-77
2023/04/29 10:25:05;;;;;;;4.10;2.90;;;;;;;16.08;54.01;96881.23;108699;1254;99752;-74
2023/04/29 10:27:33;;;;;;;7.70;3.40;;;;;;;16.26;53.72;96882.23;108336;1255;95901;-74
2023/04/29 10:30:03;;;;;;;5.40;3.60;;;;;;;16.42;53.33;96879.38;108804;1255;95760;-75
2023/04/29 10:32:32;;;;;;;4.20;3.40;;;;;;;16.64;53.01;96875.30;108742;1253;103505;-74
2023/04/29 10:35:00;;;;;;;5.80;3.60;;;;;;;17.02;53.03;96869.59;108783;1253;101283;-75
2023/04/29 10:37:27;;;;;;;4.10;3.50;;;;;;;17.54;52.51;96862.77;108747;1253;99467;-77
2023/04/29 10:40:15;;;;;;;8.20;3.50;;;;;;;17.92;51.92;96860.67;108762;1254;95652;-75
2023/04/29 10:42:42;;;;;;;4.80;3.70;;;;;;;18.14;51.25;96855.02;108360;1253;96377;-75
2023/04/29 10:45:18;;;;;;;5.40;3.50;;;;;;;18.26;50.88;96856.44;108751;1254;96425;-75
2023/04/29 10:48:04;;;;;;;5.80;3.40;;;;;;;18.37;50.72;96853.42;108811;1254;101231;-75
2023/04/29 10:50:33;;;;;;;4.90;3.30;;;;;;;18.42;50.28;96843.15;108416;1253;100100;-76
2023/04/29 10:53:04;;;;;;;5.60;3.70;;;;;;;18.49;49.84;96843.24;108808;1254;95693;-75
2023/04/29 10:55:35;;;;;;;5.30;3.50;;;;;;;18.56;49.61;96838.00;108813;1253;95624;-75
2023/04/29 10:58:03;;;;;;;5.10;4.10;;;;;;;18.65;49.34;96838.95;108859;1253;103662;-75
2023/04/29 11:00:33;;;;;;;4.10;3.50;;;;;;;18.68;49.29;96837.41;108830;1254;101163;-79
2023/04/29 11:03:01;;;;;;;7.40;5.90;;;;;;;18.63;48.95;96838.89;108821;1252;100179;-75
2023/04/29 11:05:32;;;;;;;5.40;4.60;;;;;;;18.46;48.27;96837.14;108734;1254;95695;-74
2023/04/29 11:08:12;;;;;;;4.80;3.30;;;;;;;18.33;48.32;96835.02;108870;1253;96619;-75
2023/04/29 11:10:43;;;;;;;5.30;3.50;;;;;;;18.22;47.91;96837.42;108831;1254;103487;-76
2023/04/29 11:13:23;;;;;;;4.40;3.50;;;;;;;18.12;47.81;96837.33;108839;1254;101747;-75
2023/04/29 11:15:54;;;;;;;5.40;3.70;;;;;;;18.09;48.05;96834.98;108787;1253;99952;-76
2023/04/29 11:18:22;;;;;;;5.40;3.60;;;;;;;18.10;48.07;96832.96;108780;1254;95603;-75
2023/04/29 11:21:07;;;;;;;5.50;3.70;;;;;;;18.07;48.33;96834.48;108851;1254;95975;-78
2023/04/29 11:23:40;;;;;;;6.40;4.10;;;;;;;17.95;48.01;96835.35;108830;1254;103392;-75